Time;durP1;ratioP1;P1;durP2;ratioP2;P2;SDS_P1;SDS_P2;PMS_P1;PMS_P2;Temp;Humidity;BMP_temperature;BMP_pressure;BME280_temperature;BME280_humidity;BME280_pressure;Samples;Min_cycle;Max_cycle;Signal;HPM_P1;HPM_P2
2021/06/18 04:00:28;;;;;;;8.80;8.00;;;22.10;99.90;;;;;;5951681;23;20493;-67
2021/06/18 04:02:55;;;;;;;9.77;8.97;;;22.10;99.90;;;;;;4997867;28;20446;-68
2021/06/18 04:05:24;;;;;;;8.63;7.93;;;22.10;99.90;;;;;;4996948;28;20484;-66
2021/06/18 04:07:53;;;;;;;9.27;8.17;;;22.20;99.90;;;;;;4999244;28;20822;-68
2021/06/18 04:10:21;;;;;;;7.83;7.13;;;22.30;99.90;;;;;;4999064;28;20460;-67
2021/06/18 04:12:50;;;;;;;8.73;7.90;;;22.30;99.90;;;;;;4997937;28;20462;-66
2021/06/18 04:15:18;;;;;;;9.93;7.70;;;22.40;99.90;;;;;;4998491;28;20545;-66
2021/06/18 04:17:46;;;;;;;9.20;8.40;;;22.50;99.90;;;;;;4998044;28;20458;-66
2021/06/18 04:20:15;;;;;;;8.03;7.43;;;22.50;99.90;;;;;;4997555;28;20489;-66
2021/06/18 04:22:41;;;;;;;7.83;7.13;;;22.60;99.90;;;;;;4997792;28;20536;-66
2021/06/18 04:25:10;;;;;;;7.53;6.93;;;22.80;99.90;;;;;;4996462;28;21006;-68
2021/06/18 04:27:36;;;;;;;9.07;8.17;;;22.90;99.90;;;;;;4996375;28;20453;-68
2021/06/18 04:30:06;;;;;;;8.00;7.20;;;23.00;99.90;;;;;;4999310;28;20438;-67
2021/06/18 04:32:33;;;;;;;7.77;7.17;;;23.10;99.90;;;;;;5008658;28;20501;-67
2021/06/18 04:35:01;;;;;;;9.33;7.40;;;23.10;99.90;;;;;;5005468;28;20461;-67
2021/06/18 04:37:28;;;;;;;10.23;8.03;;;23.20;99.90;;;;;;4999479;28;20849;-67
2021/06/18 04:39:55;;;;;;;8.40;7.00;;;23.30;99.90;;;;;;4995169;28;20461;-68
2021/06/18 04:42:22;;;;;;;8.40;6.50;;;23.40;99.90;;;;;;4995453;28;20478;-68
2021/06/18 04:44:49;;;;;;;8.20;7.70;;;23.50;99.90;;;;;;4995627;28;21010;-68
2021/06/18 04:47:16;;;;;;;9.00;7.40;;;23.60;99.90;;;;;;4996121;28;20450;-68
2021/06/18 04:49:42;;;;;;;8.20;7.40;;;23.70;99.90;;;;;;4995597;28;20454;-68
2021/06/18 04:52:10;;;;;;;9.53;8.73;;;23.80;99.90;;;;;;4995617;28;20478;-68
2021/06/18 04:54:37;;;;;;;8.90;8.10;;;23.80;99.90;;;;;;4995527;28;20450;-68
2021/06/18 04:57:04;;;;;;;9.10;7.70;;;23.90;99.90;;;;;;4995430;28;20461;-69
2021/06/18 04:59:34;;;;;;;9.23;8.30;;;23.90;99.90;;;;;;4995630;28;20454;-68
2021/06/18 05:02:00;;;;;;;8.57;7.70;;;23.90;99.90;;;;;;4995280;28;20485;-68
2021/06/18 05:04:27;;;;;;;8.73;8.03;;;24.00;99.90;;;;;;4995480;28;20477;-69
2021/06/18 05:06:54;;;;;;;7.80;7.10;;;24.10;99.90;;;;;;4995368;28;20449;-69
2021/06/18 05:09:22;;;;;;;8.60;7.80;;;24.10;99.90;;;;;;4995751;28;20458;-68
2021/06/18 05:11:49;;;;;;;7.70;7.00;;;24.20;99.90;;;;;;4995956;28;20473;-69
2021/06/18 05:14:16;;;;;;;8.63;7.77;;;24.30;99.90;;;;;;5006236;28;20453;-69
2021/06/18 05:16:42;;;;;;;9.00;7.53;;;24.40;99.90;;;;;;4995367;28;20457;-69
2021/06/18 05:19:09;;;;;;;8.47;7.47;;;24.50;99.90;;;;;;4995497;28;20523;-69
2021/06/18 05:21:37;;;;;;;8.13;7.30;;;24.50;99.90;;;;;;4995395;28;20841;-71
2021/06/18 05:24:05;;;;;;;8.57;6.80;;;24.60;99.90;;;;;;4995946;28;20473;-68
2021/06/18 05:26:35;;;;;;;9.57;7.10;;;24.70;99.90;;;;;;4995639;28;20458;-70
2021/06/18 05:29:01;;;;;;;8.63;7.83;;;24.80;99.90;;;;;;4996461;28;20508;-69
2021/06/18 05:31:28;;;;;;;12.53;7.73;;;25.00;99.90;;;;;;4995666;28;20481;-69
2021/06/18 05:33:55;;;;;;;7.13;6.40;;;25.10;99.90;;;;;;4996394;28;20481;-70
2021/06/18 05:36:22;;;;;;;7.10;6.40;;;25.20;99.90;;;;;;4996104;28;20473;-68
2021/06/18 05:38:49;;;;;;;10.53;6.70;;;25.30;99.90;;;;;;4995579;28;20533;-68
2021/06/18 05:41:15;;;;;;;7.33;6.57;;;25.40;99.90;;;;;;4994718;28;20473;-69
2021/06/18 05:43:43;;;;;;;15.40;7.53;;;25.60;99.90;;;;;;4994931;28;20453;-68
2021/06/18 05:46:10;;;;;;;7.37;6.77;;;25.60;99.90;;;;;;4995031;28;20454;-68
2021/06/18 05:48:37;;;;;;;7.77;7.03;;;25.70;99.90;;;;;;4994580;28;20964;-67
2021/06/18 05:51:04;;;;;;;9.27;6.60;;;25.80;99.90;;;;;;4994228;28;20985;-67
2021/06/18 05:53:31;;;;;;;6.90;6.27;;;25.90;99.90;;;;;;4994832;28;20457;-67
2021/06/18 05:55:59;;;;;;;6.60;6.00;;;26.00;99.90;;;;;;4994614;28;20457;-67
2021/06/18 05:58:26;;;;;;;6.83;6.17;;;26.10;99.90;;;;;;4994706;28;20453;-68
2021/06/18 06:00:55;;;;;;;7.50;6.57;;;26.10;99.90;;;;;;4996937;28;20489;-68
2021/06/18 06:03:22;;;;;;;7.03;6.07;;;26.10;99.90;;;;;;4995617;28;20453;-67
2021/06/18 06:05:49;;;;;;;7.97;6.07;;;26.20;99.90;;;;;;4995138;28;20837;-68
2021/06/18 06:08:16;;;;;;;6.70;5.60;;;26.30;99.90;;;;;;4994857;28;20458;-69
2021/06/18 06:10:46;;;;;;;8.20;6.63;;;26.40;99.90;;;;;;4994927;28;20473;-68
2021/06/18 06:13:12;;;;;;;6.73;6.13;;;26.50;99.90;;;;;;4994907;28;20508;-67
2021/06/18 06:15:39;;;;;;;7.43;5.33;;;26.60;99.90;;;;;;4994919;28;20453;-68
2021/06/18 06:18:07;;;;;;;6.90;5.67;;;26.70;99.90;;;;;;4994366;28;20809;-68
2021/06/18 06:20:34;;;;;;;7.00;6.30;;;26.80;99.90;;;;;;4994457;28;20511;-67
2021/06/18 06:23:02;;;;;;;6.20;5.70;;;26.90;99.90;;;;;;4994548;28;20941;-68
2021/06/18 06:25:28;;;;;;;7.67;6.20;;;27.10;99.90;;;;;;4994839;28;20489;-68
2021/06/18 06:27:56;;;;;;;7.50;6.90;;;27.30;99.90;;;;;;4994650;28;20462;-68
2021/06/18 06:30:23;;;;;;;7.20;6.60;;;27.50;99.90;;;;;;4994439;28;20499;-67
2021/06/18 06:32:50;;;;;;;7.37;6.63;;;27.60;99.90;;;;;;4995000;28;20852;-67
2021/06/18 06:35:18;;;;;;;8.07;7.47;;;27.70;99.90;;;;;;4994694;28;20453;-67
2021/06/18 06:37:44;;;;;;;9.80;8.03;;;27.90;99.90;;;;;;4994295;28;20454;-69
2021/06/18 06:40:13;;;;;;;8.23;7.53;;;27.90;99.90;;;;;;4994636;28;20454;-69
2021/06/18 06:42:39;;;;;;;9.03;8.20;;;27.90;99.90;;;;;;4995043;28;20500;-69
2021/06/18 06:45:07;;;;;;;8.57;7.70;;;27.90;99.90;;;;;;4994593;28;20488;-69
2021/06/18 06:47:34;;;;;;;8.47;7.57;;;28.20;99.90;;;;;;4994668;28;20458;-69
2021/06/18 06:50:01;;;;;;;8.20;7.40;;;28.40;99.90;;;;;;4996235;28;20453;-70
2021/06/18 06:52:29;;;;;;;9.93;7.60;;;28.70;99.90;;;;;;5003286;28;21004;-69
2021/06/18 06:54:55;;;;;;;8.47;7.10;;;28.70;99.90;;;;;;4995513;28;20453;-70
2021/06/18 06:57:22;;;;;;;8.70;7.00;;;28.70;99.90;;;;;;4994617;28;20454;-70
2021/06/18 06:59:49;;;;;;;15.90;7.67;;;28.80;99.90;;;;;;4994504;28;20458;-70
2021/06/18 07:02:16;;;;;;;10.23;7.20;;;29.20;99.90;;;;;;4994933;28;20819;-68
2021/06/18 07:04:42;;;;;;;7.60;6.97;;;29.60;99.90;;;;;;4997901;28;20575;-69
2021/06/18 07:07:09;;;;;;;9.00;7.10;;;30.20;99.90;;;;;;4998432;28;20458;-69
2021/06/18 07:09:39;;;;;;;9.43;6.40;;;30.60;99.20;;;;;;4997856;28;20544;-68
2021/06/18 07:12:06;;;;;;;7.97;5.93;;;31.20;97.50;;;;;;4997295;28;20527;-68
2021/06/18 07:14:36;;;;;;;6.40;5.70;;;31.80;95.60;;;;;;4997413;28;20450;-71
2021/06/18 07:17:03;;;;;;;8.93;6.67;;;32.30;94.00;;;;;;4997879;28;20552;-67
2021/06/18 07:19:30;;;;;;;6.80;6.17;;;32.80;92.30;;;;;;4997361;28;20449;-68
2021/06/18 07:21:56;;;;;;;7.60;6.37;;;33.20;90.70;;;;;;4997062;28;20984;-68
2021/06/18 07:24:23;;;;;;;7.17;6.67;;;33.80;87.60;;;;;;5007690;28;20465;-69
2021/06/18 07:26:51;;;;;;;8.70;6.53;;;34.10;84.10;;;;;;5005669;28;20962;-68
2021/06/18 07:29:18;;;;;;;9.17;6.00;;;34.60;82.60;;;;;;4998039;28;20453;-67
2021/06/18 07:31:45;;;;;;;7.90;7.13;;;35.00;81.70;;;;;;4997742;28;20488;-69
2021/06/18 07:34:12;;;;;;;7.03;6.43;;;35.20;79.30;;;;;;4997589;28;20944;-68
2021/06/18 07:36:39;;;;;;;6.53;6.00;;;35.40;77.90;;;;;;4997723;28;20455;-68
2021/06/18 07:39:08;;;;;;;6.90;6.23;;;35.60;75.00;;;;;;4997531;28;20457;-67
2021/06/18 07:41:37;;;;;;;7.27;6.23;;;35.70;72.50;;;;;;4997967;28;20473;-68
2021/06/18 07:44:06;;;;;;;8.73;6.83;;;35.50;73.20;;;;;;4997631;28;20501;-68
2021/06/18 07:46:33;;;;;;;8.10;7.30;;;35.10;72.60;;;;;;4997077;28;20484;-68
2021/06/18 07:48:59;;;;;;;6.97;6.37;;;35.20;73.20;;;;;;4996772;28;20940;-68
2021/06/18 07:51:26;;;;;;;5.90;5.40;;;35.30;73.30;;;;;;4996782;28;20477;-68
2021/06/18 07:53:53;;;;;;;6.83;6.23;;;35.60;72.60;;;;;;4996890;28;20453;-68
2021/06/18 07:56:24;;;;;;;6.20;5.80;;;36.00;70.50;;;;;;4997486;28;20453;-68
2021/06/18 07:58:51;;;;;;;7.30;6.60;;;36.20;68.80;;;;;;4996984;28;20500;-68
2021/06/18 08:01:19;;;;;;;6.57;6.10;;;36.30;67.20;;;;;;4996711;28;20485;-68
2021/06/18 08:03:46;;;;;;;13.63;7.20;;;36.10;67.90;;;;;;4997023;28;20508;-68
2021/06/18 08:06:13;;;;;;;6.47;6.00;;;36.30;67.30;;;;;;4996698;28;20484;-68
2021/06/18 08:08:40;;;;;;;6.73;6.00;;;36.10;66.10;;;;;;4997152;28;20457;-68
2021/06/18 08:11:07;;;;;;;8.10;6.90;;;36.30;66.90;;;;;;4996578;28;20473;-68
2021/06/18 08:13:34;;;;;;;6.70;6.07;;;36.40;65.30;;;;;;4996235;28;20853;-68
2021/06/18 08:16:01;;;;;;;6.47;5.80;;;36.20;67.20;;;;;;4996573;28;20479;-69
2021/06/18 08:18:29;;;;;;;6.93;6.33;;;36.20;66.10;;;;;;4997005;28;20453;-68
2021/06/18 08:20:56;;;;;;;6.53;5.70;;;36.60;64.80;;;;;;4996203;28;20976;-67
2021/06/18 08:23:22;;;;;;;7.10;6.20;;;36.70;65.30;;;;;;4996366;28;20913;-68
2021/06/18 08:25:50;;;;;;;6.13;5.53;;;36.80;62.90;;;;;;4996344;28;20485;-68
2021/06/18 08:28:17;;;;;;;6.20;5.70;;;37.40;63.80;;;;;;4996768;28;20488;-69
2021/06/18 08:30:44;;;;;;;10.40;7.20;;;37.30;65.50;;;;;;5001898;28;20474;-68
2021/06/18 08:33:10;;;;;;;7.37;6.97;;;37.70;64.50;;;;;;5002318;28;20925;-68
2021/06/18 08:35:39;;;;;;;7.03;6.43;;;37.40;60.80;;;;;;4996630;28;20460;-68
2021/06/18 08:38:06;;;;;;;6.83;6.13;;;37.60;62.00;;;;;;4996228;28;20460;-67
2021/06/18 08:40:34;;;;;;;7.27;6.57;;;36.80;62.60;;;;;;4996014;28;20544;-68
2021/06/18 08:43:02;;;;;;;10.80;6.87;;;37.20;63.00;;;;;;4995363;28;20525;-68
2021/06/18 08:45:30;;;;;;;7.07;6.20;;;37.00;63.70;;;;;;4996111;28;20473;-68
2021/06/18 08:47:57;;;;;;;7.40;6.70;;;37.10;59.10;;;;;;4995617;28;20457;-68
2021/06/18 08:50:24;;;;;;;6.23;5.83;;;37.60;61.50;;;;;;4995714;28;20457;-69
2021/06/18 08:52:53;;;;;;;7.20;6.63;;;38.00;61.60;;;;;;4995811;28;20461;-69
2021/06/18 08:55:21;;;;;;;6.73;6.20;;;38.20;57.40;;;;;;4995810;28;20453;-69
2021/06/18 08:57:49;;;;;;;7.70;6.43;;;38.60;59.60;;;;;;4995657;28;20461;-69
2021/06/18 09:00:18;;;;;;;7.13;6.50;;;39.00;58.30;;;;;;4995672;28;20481;-69
2021/06/18 09:02:44;;;;;;;7.77;7.17;;;38.90;57.80;;;;;;4995678;28;20449;-69
2021/06/18 09:05:13;;;;;;;7.50;6.87;;;39.00;57.60;;;;;;4995505;28;20511;-69
2021/06/18 09:07:55;;;;;;;8.47;7.83;;;39.40;56.70;;;;;;4997978;28;20454;-69
2021/06/18 09:10:24;;;;;;;7.73;7.20;;;39.20;56.70;;;;;;5008289;28;20433;-69
2021/06/18 09:13:12;;;;;;;11.07;6.70;;;39.20;59.00;;;;;;4998408;28;20461;-69
2021/06/18 09:15:40;;;;;;;7.93;7.13;;;39.50;57.50;;;;;;4995904;28;20470;-69
2021/06/18 09:18:29;;;;;;;7.00;6.43;;;39.50;57.70;;;;;;4995519;28;20816;-69
2021/06/18 09:21:15;;;;;;;7.23;6.73;;;39.60;55.70;;;;;;4995511;28;20216;-69
2021/06/18 09:23:44;;;;;;;8.30;7.40;;;39.90;55.00;;;;;;4995244;28;20197;-69
2021/06/18 09:26:34;;;;;;;11.70;6.97;;;39.50;54.00;;;;;;4994566;28;20255;-69
2021/06/18 09:29:05;;;;;;;7.80;6.80;;;39.50;55.80;;;;;;4991147;28;20203;-69
2021/06/18 09:31:34;;;;;;;7.57;6.70;;;39.80;56.90;;;;;;4995268;28;20483;-69
2021/06/18 09:34:02;;;;;;;7.00;6.40;;;40.00;56.80;;;;;;4994665;28;20204;-69
2021/06/18 09:36:28;;;;;;;7.40;6.80;;;40.00;55.50;;;;;;4995034;28;20222;-68
2021/06/18 09:38:56;;;;;;;6.50;6.00;;;39.30;56.10;;;;;;4995196;28;20461;-69
2021/06/18 09:41:35;;;;;;;6.63;6.23;;;39.20;55.90;;;;;;4995297;28;20477;-69
2021/06/18 09:44:04;;;;;;;8.03;7.10;;;39.50;54.10;;;;;;4995237;28;20443;-69
2021/06/18 09:46:49;;;;;;;7.97;7.37;;;39.80;55.30;;;;;;4994925;28;20486;-69
2021/06/18 09:49:37;;;;;;;7.23;6.63;;;38.90;55.40;;;;;;4994818;28;20460;-68
2021/06/18 09:52:06;;;;;;;6.77;6.17;;;38.40;57.10;;;;;;4994727;28;20479;-69
2021/06/18 09:54:39;;;;;;;7.00;6.40;;;39.10;56.30;;;;;;4995065;28;20455;-69
2021/06/18 09:57:15;;;;;;;7.50;6.80;;;39.60;56.40;;;;;;4994881;28;20456;-69
2021/06/18 09:59:55;;;;;;;7.60;6.30;;;40.40;54.40;;;;;;4994765;28;20190;-69
2021/06/18 10:02:37;;;;;;;7.53;6.97;;;40.70;54.00;;;;;;4994571;28;20239;-69
2021/06/18 10:05:04;;;;;;;8.40;7.17;;;41.00;53.30;;;;;;4994643;28;20187;-69
2021/06/18 10:07:34;;;;;;;8.40;7.70;;;41.20;52.20;;;;;;4995011;28;20189;-68
2021/06/18 10:10:05;;;;;;;8.98;6.65;;;41.40;53.30;;;;;;4996066;28;20210;-69
2021/06/18 10:12:32;;;;;;;6.85;6.25;;;41.80;54.70;;;;;;4996854;28;20225;-69
2021/06/18 10:15:06;;;;;;;6.55;5.85;;;41.90;48.40;;;;;;4994843;28;20210;-69
2021/06/18 10:17:33;;;;;;;7.15;6.55;;;41.40;50.30;;;;;;4994755;28;20220;-68
2021/06/18 10:20:01;;;;;;;6.68;6.15;;;41.20;50.30;;;;;;4994665;28;20203;-69
2021/06/18 10:22:28;;;;;;;6.95;6.55;;;41.50;50.30;;;;;;4994485;28;20225;-68
2021/06/18 10:25:00;;;;;;;8.00;7.30;;;41.50;50.90;;;;;;4994890;28;20211;-68
2021/06/18 10:27:34;;;;;;;8.32;6.05;;;41.80;51.60;;;;;;4994963;28;20214;-69
2021/06/18 10:30:23;;;;;;;6.85;6.30;;;41.50;50.30;;;;;;4994725;28;20186;-69
2021/06/18 10:32:50;;;;;;;7.03;6.45;;;41.50;49.70;;;;;;4994649;28;20809;-69
2021/06/18 10:35:41;;;;;;;6.90;6.50;;;41.00;49.50;;;;;;4994507;28;20204;-68
2021/06/18 10:38:30;;;;;;;9.27;6.68;;;40.60;50.60;;;;;;4996420;28;20605;-68
2021/06/18 10:40:58;;;;;;;6.60;6.10;;;40.80;56.50;;;;;;4997944;28;20224;-70
2021/06/18 10:43:37;;;;;;;6.47;6.03;;;40.90;52.70;;;;;;4999221;28;20289;-68
2021/06/18 10:46:16;;;;;;;5.95;5.43;;;40.60;51.60;;;;;;4998295;28;20206;-70
2021/06/18 10:49:13;;;;;;;6.17;5.77;;;40.90;49.70;;;;;;4998807;28;20212;-70
2021/06/18 10:51:46;;;;;;;6.10;5.70;;;40.90;48.10;;;;;;4998844;28;20253;-70
2021/06/18 10:54:17;;;;;;;6.60;6.00;;;40.80;49.30;;;;;;4997842;28;20200;-69
2021/06/18 10:57:13;;;;;;;6.03;5.72;;;40.80;49.70;;;;;;4998884;28;20197;-70
2021/06/18 10:59:44;;;;;;;6.45;6.05;;;41.10;50.40;;;;;;4998665;28;20196;-70
2021/06/18 11:02:35;;;;;;;6.15;5.68;;;41.00;47.30;;;;;;4997756;28;20305;-69
2021/06/18 11:05:07;;;;;;;5.75;5.38;;;41.00;48.80;;;;;;4997693;28;20557;-69
2021/06/18 11:07:35;;;;;;;5.97;5.20;;;41.20;50.60;;;;;;4997596;28;20301;-70
2021/06/18 11:10:04;;;;;;;5.40;5.00;;;40.80;47.50;;;;;;4997288;28;20673;-69
2021/06/18 11:12:46;;;;;;;4.80;4.40;;;40.50;48.40;;;;;;4997540;28;20223;-70
2021/06/18 11:15:46;;;;;;;5.80;5.30;;;40.30;45.70;;;;;;4997367;28;20191;-69
2021/06/18 11:18:19;;;;;;;5.20;4.90;;;39.80;45.90;;;;;;4997788;28;20294;-70
2021/06/18 11:20:54;;;;;;;5.83;5.50;;;39.70;46.10;;;;;;4998465;28;20223;-70
2021/06/18 11:23:23;;;;;;;5.83;5.53;;;39.70;48.90;;;;;;4998757;28;20493;-71
2021/06/18 11:25:59;;;;;;;6.10;5.50;;;39.40;49.20;;;;;;4997726;28;20838;-69
2021/06/18 11:28:47;;;;;;;6.60;6.10;;;38.70;52.00;;;;;;4998662;28;20460;-71
2021/06/18 11:31:21;;;;;;;6.43;6.10;;;38.40;49.70;;;;;;4998600;28;20484;-70
2021/06/18 11:33:56;;;;;;;5.73;5.40;;;38.10;52.30;;;;;;4997538;28;20912;-70
2021/06/18 11:36:47;;;;;;;6.00;5.60;;;37.70;50.50;;;;;;4997990;28;20438;-69
2021/06/18 11:39:20;;;;;;;7.37;6.80;;;37.50;50.70;;;;;;4998367;28;20458;-70
2021/06/18 11:41:56;;;;;;;6.23;5.80;;;37.30;53.40;;;;;;4997759;28;20477;-71
2021/06/18 11:44:25;;;;;;;6.33;5.90;;;37.20;53.20;;;;;;4997629;28;20448;-70
2021/06/18 11:46:56;;;;;;;6.63;6.20;;;37.10;51.30;;;;;;4997414;28;20476;-70
2021/06/18 11:49:29;;;;;;;6.03;5.63;;;37.10;51.60;;;;;;4997386;28;20442;-71
2021/06/18 11:52:09;;;;;;;6.70;6.30;;;36.60;54.20;;;;;;5008854;28;21044;-71
2021/06/18 11:54:39;;;;;;;6.53;5.60;;;36.60;56.20;;;;;;4998750;28;20545;-70
2021/06/18 11:57:23;;;;;;;6.23;5.83;;;36.60;52.70;;;;;;4998547;28;20523;-70
2021/06/18 11:59:58;;;;;;;7.17;6.47;;;36.60;52.20;;;;;;4997733;28;20495;-71
2021/06/18 12:02:32;;;;;;;7.03;6.53;;;36.60;55.40;;;;;;4997975;28;20852;-71
2021/06/18 12:05:09;;;;;;;6.20;5.87;;;36.70;53.20;;;;;;5000671;28;20472;-70
2021/06/18 12:07:36;;;;;;;6.43;5.93;;;36.10;51.90;;;;;;4998119;28;20500;-70
2021/06/18 12:10:05;;;;;;;5.70;5.20;;;35.80;50.40;;;;;;4997361;28;20480;-70
2021/06/18 12:12:44;;;;;;;6.10;5.70;;;35.70;52.30;;;;;;4997286;28;20476;-69
2021/06/18 12:15:20;;;;;;;6.57;6.00;;;35.90;52.80;;;;;;4999529;28;20472;-70
2021/06/18 12:17:57;;;;;;;6.43;5.83;;;35.80;52.40;;;;;;5005210;28;20441;-70
2021/06/18 12:20:30;;;;;;;6.20;5.80;;;35.70;55.20;;;;;;4997743;28;20459;-70
2021/06/18 12:22:57;;;;;;;5.47;5.07;;;35.90;55.70;;;;;;4997489;28;20442;-70
2021/06/18 12:25:24;;;;;;;5.43;5.10;;;36.00;52.40;;;;;;4996637;28;20461;-70
2021/06/18 12:27:56;;;;;;;6.20;4.70;;;36.20;50.60;;;;;;4999433;28;20565;-70
2021/06/18 12:30:24;;;;;;;4.93;4.73;;;36.40;50.30;;;;;;4998692;28;20430;-70
2021/06/18 12:32:52;;;;;;;4.87;4.47;;;36.60;50.00;;;;;;4999078;28;20481;-71
2021/06/18 12:35:22;;;;;;;4.80;4.40;;;36.60;50.90;;;;;;4996783;28;20883;-71
2021/06/18 12:37:51;;;;;;;5.33;5.03;;;36.60;49.60;;;;;;4996164;28;20503;-70
2021/06/18 12:40:22;;;;;;;5.27;4.87;;;36.50;51.40;;;;;;4997550;28;20492;-70
2021/06/18 12:42:50;;;;;;;5.63;5.33;;;36.70;50.60;;;;;;4999076;28;20437;-69
2021/06/18 12:45:19;;;;;;;5.43;4.93;;;36.70;49.10;;;;;;4997800;28;20457;-69
2021/06/18 12:47:47;;;;;;;5.33;4.93;;;36.50;48.10;;;;;;4997709;28;20484;-70
2021/06/18 12:50:26;;;;;;;5.40;5.00;;;36.40;49.50;;;;;;4997453;28;20453;-70
2021/06/18 12:52:54;;;;;;;5.60;5.20;;;36.50;50.10;;;;;;4997108;28;20437;-69
2021/06/18 12:55:30;;;;;;;5.07;4.80;;;36.50;49.00;;;;;;4996050;28;20944;-69
2021/06/18 12:58:12;;;;;;;5.33;4.93;;;36.60;53.00;;;;;;4996474;28;20464;-70
2021/06/18 13:00:47;;;;;;;5.40;4.93;;;36.70;52.10;;;;;;4995420;28;20485;-70
2021/06/18 13:03:15;;;;;;;7.47;5.47;;;36.70;50.60;;;;;;4996415;28;20467;-70
2021/06/18 13:05:53;;;;;;;5.27;4.80;;;36.60;47.90;;;;;;4996058;28;20948;-69
2021/06/18 13:08:20;;;;;;;6.17;5.63;;;36.80;51.30;;;;;;4995730;28;20508;-70
2021/06/18 13:10:47;;;;;;;5.80;5.17;;;36.70;51.00;;;;;;4996637;28;20473;-69
2021/06/18 13:13:21;;;;;;;5.77;5.40;;;36.60;50.90;;;;;;4997946;28;20460;-70
2021/06/18 13:15:48;;;;;;;4.73;4.50;;;36.60;49.40;;;;;;4998083;28;20446;-70
2021/06/18 13:18:16;;;;;;;5.43;4.90;;;36.60;52.20;;;;;;4997858;28;20453;-69
2021/06/18 13:20:45;;;;;;;5.77;5.23;;;36.50;51.90;;;;;;4996351;28;20849;-69
2021/06/18 13:23:28;;;;;;;7.10;5.73;;;36.40;53.40;;;;;;4996000;28;20453;-69
2021/06/18 13:26:06;;;;;;;5.77;5.27;;;36.20;53.00;;;;;;4996411;28;20444;-69
2021/06/18 13:28:42;;;;;;;6.30;4.77;;;36.40;52.40;;;;;;4996301;28;20823;-70
2021/06/18 13:31:10;;;;;;;5.20;4.77;;;36.00;49.40;;;;;;4996180;28;20539;-70
2021/06/18 13:33:45;;;;;;;5.13;4.83;;;36.10;49.90;;;;;;4995756;28;20453;-70
2021/06/18 13:36:14;;;;;;;6.47;5.17;;;35.90;52.10;;;;;;4999174;28;20443;-70
2021/06/18 13:38:49;;;;;;;5.33;4.93;;;35.80;50.70;;;;;;4996048;28;20457;-70
2021/06/18 13:41:15;;;;;;;6.03;4.83;;;36.00;50.50;;;;;;4995804;28;20476;-69
2021/06/18 13:43:42;;;;;;;4.97;4.70;;;36.10;50.90;;;;;;4995280;28;20449;-70
2021/06/18 13:46:09;;;;;;;5.03;4.53;;;36.20;50.20;;;;;;4995322;28;20457;-71
2021/06/18 13:48:36;;;;;;;6.00;5.30;;;36.00;51.20;;;;;;4995459;28;20469;-69
2021/06/18 13:51:02;;;;;;;7.03;5.00;;;36.10;49.00;;;;;;4995463;28;20480;-70
2021/06/18 13:53:30;;;;;;;5.50;5.00;;;36.00;49.80;;;;;;4995342;28;20460;-70
2021/06/18 13:55:58;;;;;;;7.73;5.03;;;35.70;48.20;;;;;;4995583;28;20457;-70
2021/06/18 13:58:24;;;;;;;5.20;4.80;;;35.70;52.80;;;;;;4995960;28;20861;-70
2021/06/18 14:00:51;;;;;;;7.20;5.10;;;35.80;51.80;;;;;;4995259;28;20481;-69
2021/06/18 14:03:18;;;;;;;5.77;5.27;;;35.90;51.50;;;;;;4995440;28;20464;-70
2021/06/18 14:05:44;;;;;;;5.80;5.00;;;35.90;49.30;;;;;;4995499;28;20460;-70
2021/06/18 14:08:11;;;;;;;5.50;5.00;;;36.00;49.80;;;;;;4995300;28;20477;-70
2021/06/18 14:10:40;;;;;;;9.73;5.47;;;35.80;48.50;;;;;;4995421;28;20469;-69
2021/06/18 14:13:07;;;;;;;5.70;5.20;;;36.00;48.80;;;;;;4998767;28;20464;-69
2021/06/18 14:15:37;;;;;;;7.67;5.30;;;36.10;49.20;;;;;;4999195;28;20468;-70
2021/06/18 14:18:05;;;;;;;5.40;4.90;;;36.10;51.20;;;;;;4999508;28;20491;-71
2021/06/18 14:20:32;;;;;;;6.57;5.20;;;36.20;51.90;;;;;;4999374;28;20465;-70
2021/06/18 14:22:59;;;;;;;5.70;5.30;;;36.20;51.40;;;;;;4999114;28;20551;-70
2021/06/18 14:25:28;;;;;;;6.53;5.93;;;36.00;51.80;;;;;;4999100;28;20816;-70
2021/06/18 14:27:57;;;;;;;6.53;5.40;;;36.00;49.00;;;;;;4999278;28;20473;-70
2021/06/18 14:30:24;;;;;;;6.00;5.50;;;36.00;50.70;;;;;;4999042;28;20511;-70
2021/06/18 14:32:54;;;;;;;5.87;5.33;;;36.10;51.60;;;;;;4999227;28;20809;-71
2021/06/18 14:35:21;;;;;;;6.07;5.57;;;36.00;51.40;;;;;;4999027;28;20453;-70
2021/06/18 14:37:48;;;;;;;5.87;5.37;;;36.10;52.20;;;;;;4999397;28;20465;-70
2021/06/18 14:40:15;;;;;;;7.30;5.13;;;36.20;51.20;;;;;;4999801;28;20540;-69
2021/06/18 14:42:42;;;;;;;5.20;4.70;;;36.10;51.30;;;;;;4998420;28;20457;-70
2021/06/18 14:45:12;;;;;;;4.70;4.40;;;36.00;52.60;;;;;;4998472;28;20460;-70
2021/06/18 14:47:39;;;;;;;6.47;5.67;;;36.10;51.40;;;;;;4998993;28;21014;-67
2021/06/18 14:50:08;;;;;;;8.00;5.67;;;36.10;50.60;;;;;;4998919;28;20459;-69
2021/06/18 14:52:35;;;;;;;6.47;5.40;;;36.20;50.00;;;;;;4998945;28;20477;-68
2021/06/18 14:55:02;;;;;;;6.07;5.13;;;36.20;48.80;;;;;;4999227;28;20453;-68
2021/06/18 14:57:29;;;;;;;5.37;4.97;;;36.20;49.70;;;;;;4998365;28;20449;-68
2021/06/18 14:59:56;;;;;;;8.57;4.40;;;36.20;49.90;;;;;;4998280;28;20458;-69
2021/06/18 15:02:24;;;;;;;6.53;4.77;;;36.30;51.60;;;;;;4997755;28;20481;-69
2021/06/18 15:04:51;;;;;;;5.90;4.80;;;36.20;50.50;;;;;;4997900;28;20453;-69
2021/06/18 15:07:17;;;;;;;7.03;5.60;;;36.20;50.90;;;;;;4998066;28;20476;-68
2021/06/18 15:09:45;;;;;;;10.70;6.53;;;35.90;49.50;;;;;;4998168;28;20450;-68
2021/06/18 15:12:13;;;;;;;10.10;5.20;;;36.00;49.00;;;;;;4999053;28;20568;-67
2021/06/18 15:14:39;;;;;;;5.23;4.93;;;35.90;48.80;;;;;;4998716;28;20464;-68
2021/06/18 15:17:06;;;;;;;5.47;5.07;;;35.80;53.10;;;;;;5000954;28;20456;-68
2021/06/18 15:19:34;;;;;;;6.50;5.50;;;35.80;50.70;;;;;;5001845;28;20464;-69
2021/06/18 15:22:01;;;;;;;5.90;5.40;;;35.80;50.60;;;;;;5015141;28;20467;-68
2021/06/18 15:24:28;;;;;;;6.47;5.10;;;35.70;51.20;;;;;;5013952;28;20455;-69
2021/06/18 15:26:56;;;;;;;7.90;5.83;;;35.60;50.90;;;;;;5000056;28;20453;-68
2021/06/18 15:29:22;;;;;;;7.50;5.43;;;35.60;51.20;;;;;;4998661;28;20925;-69
2021/06/18 15:31:51;;;;;;;6.00;4.83;;;35.60;51.70;;;;;;4998324;28;20473;-68
2021/06/18 15:34:18;;;;;;;11.57;5.90;;;35.70;51.90;;;;;;4997775;28;20536;-69
2021/06/18 15:36:46;;;;;;;5.30;4.83;;;35.60;50.80;;;;;;4997656;28;20941;-69
2021/06/18 15:39:15;;;;;;;5.90;5.40;;;35.70;51.30;;;;;;4998680;28;20789;-70
2021/06/18 15:41:42;;;;;;;7.13;4.90;;;35.60;51.90;;;;;;4997728;28;20481;-69
2021/06/18 15:44:09;;;;;;;5.10;4.80;;;35.70;51.20;;;;;;4997775;28;20457;-68
2021/06/18 15:46:36;;;;;;;8.50;4.93;;;35.60;49.20;;;;;;4997723;28;20468;-69
2021/06/18 15:49:03;;;;;;;4.90;4.60;;;35.20;49.40;;;;;;4997978;28;20473;-68
2021/06/18 15:51:30;;;;;;;5.33;4.83;;;35.10;49.10;;;;;;4997052;28;20845;-69
2021/06/18 15:53:58;;;;;;;5.23;4.80;;;34.80;49.10;;;;;;4997336;28;20449;-70
2021/06/18 15:56:26;;;;;;;5.43;4.93;;;34.90;49.60;;;;;;4997437;28;20453;-68
2021/06/18 15:58:52;;;;;;;5.30;4.80;;;34.90;51.60;;;;;;4997562;28;20453;-68
2021/06/18 16:01:19;;;;;;;6.40;4.60;;;34.90;52.00;;;;;;4999297;28;20485;-70
2021/06/18 16:03:46;;;;;;;5.70;5.13;;;34.90;51.50;;;;;;4997717;28;20457;-69
2021/06/18 16:06:14;;;;;;;5.27;4.60;;;35.00;50.40;;;;;;4998666;28;20453;-69
2021/06/18 16:08:41;;;;;;;7.10;5.10;;;35.00;50.80;;;;;;4998276;28;20481;-69
2021/06/18 16:11:09;;;;;;;7.20;5.07;;;35.00;50.40;;;;;;4997552;28;20841;-69
2021/06/18 16:13:36;;;;;;;7.40;4.90;;;35.10;50.30;;;;;;4999284;28;20453;-69
2021/06/18 16:16:02;;;;;;;6.10;4.50;;;35.00;50.70;;;;;;4997165;28;20459;-69
2021/06/18 16:18:29;;;;;;;6.00;4.40;;;35.20;50.00;;;;;;4997724;28;20451;-69
2021/06/18 16:20:56;;;;;;;6.43;5.10;;;35.20;49.90;;;;;;4996910;28;20481;-69
2021/06/18 16:23:23;;;;;;;9.13;5.13;;;35.20;50.10;;;;;;4996831;28;20453;-69
2021/06/18 16:25:50;;;;;;;5.00;4.50;;;35.10;48.90;;;;;;4997202;28;20457;-69
2021/06/18 16:28:19;;;;;;;7.43;4.97;;;34.90;49.10;;;;;;4997563;28;20504;-69
2021/06/18 16:30:46;;;;;;;8.17;5.60;;;34.90;48.80;;;;;;4997060;28;20481;-68
2021/06/18 16:33:13;;;;;;;9.87;9.07;;;34.80;48.30;;;;;;4996691;28;20461;-69
2021/06/18 16:35:40;;;;;;;10.73;9.73;;;34.90;48.80;;;;;;4996697;28;20941;-70
2021/06/18 16:38:07;;;;;;;8.80;7.00;;;34.90;49.90;;;;;;4997361;28;20449;-69
2021/06/18 16:40:34;;;;;;;7.70;7.10;;;35.00;51.40;;;;;;4996916;28;20453;-69
2021/06/18 16:43:00;;;;;;;5.80;5.07;;;35.10;52.10;;;;;;4998866;28;20464;-69
2021/06/18 16:45:29;;;;;;;6.30;5.30;;;35.10;50.20;;;;;;4996428;28;20449;-69
2021/06/18 16:47:56;;;;;;;7.80;5.30;;;35.00;50.10;;;;;;4998523;28;20477;-69
2021/06/18 16:50:23;;;;;;;8.53;4.90;;;34.90;48.20;;;;;;4997551;28;20457;-67
2021/06/18 16:52:50;;;;;;;4.60;4.20;;;34.90;48.60;;;;;;4995991;28;20551;-66
2021/06/18 16:55:17;;;;;;;8.17;4.70;;;34.80;49.50;;;;;;4995829;28;20457;-67
2021/06/18 16:57:44;;;;;;;7.10;4.70;;;34.70;49.60;;;;;;4995471;28;20456;-66